PWSweather.com
Personal Weather Stations
Station Observations
KB2SBX
Sugarloaf, Sugarloaf, PA 18249

SugarloafSugarloaf, PA 18249

Lat: 41.0126685, Lon: -76.1082041

Elevation: 1030

Station Type: WS-2080

http://sugarloafpaweather.webng.com/weather.shtml

High Low Average
Temperature 36.1°F2.3°C 21.0°F-6.1°C 29.0°F-1.7°C
Dew Point 23.3°F-4.8°C 15.0°F-9.4°C 19.4°F-7.0°C
Winds 3.5 mph 5.6 kmh Calm Calm 1.0 mph WSW1.6 kmh WSW
Wind Gusts 9.8 mph15.8 kmh -- 4.0 mph6.4 kmh
Humidity 83% 49% 68%
Pressure 30.13 in1020.3 mb 30.04 in1017.3 mb -
Precipitation 0.11 in2.8 mm - -
Hour Temp Dew Point Humidity Winds Wind Gusts Pressure Precip Precip Rate Daily Precip Total
12:00 AM 28.6°F-1.9°C 24.9°F-3.9°C 86% Calm Calm 1.6 mph2.6 kmh 30.05 in1017.6 mb 0.00 in0.0 mm 0.00 in/hr0.0 mm/hr 0.00 in0.0 mm
12:15 AM 28.4°F-2.0°C 24.8°F-4.0°C 86% Calm Calm 0.7 mph1.1 kmh 30.05 in1017.6 mb 0.00 in0.0 mm 0.00 in/hr0.0 mm/hr 0.00 in0.0 mm
12:30 AM 28.2°F-2.1°C 23.5°F-4.7°C 82% 0.2 mph WNW0.3 kmh WNW 2.2 mph3.5 kmh 30.05 in1017.6 mb 0.00 in0.0 mm 0.00 in/hr0.0 mm/hr 0.00 in0.0 mm
12:45 AM 28.0°F-2.2°C 23.3°F-4.8°C 82% 0.1 mph WSW0.2 kmh WSW 1.6 mph2.6 kmh 30.05 in1017.6 mb 0.00 in0.0 mm 0.00 in/hr0.0 mm/hr 0.00 in0.0 mm
01:00 AM 28.0°F-2.2°C 23.3°F-4.8°C 82% Calm Calm 0.7 mph1.1 kmh 30.05 in1017.6 mb 0.00 in0.0 mm 0.00 in/hr0.0 mm/hr 0.00 in0.0 mm
01:15 AM 28.0°F-2.2°C 23.3°F-4.8°C 82% 0.1 mph S0.2 kmh S 1.6 mph2.6 kmh 30.04 in1017.3 mb 0.00 in0.0 mm 0.00 in/hr0.0 mm/hr 0.00 in0.0 mm
01:30 AM 27.9°F-2.3°C 23.1°F-4.9°C 82% 0.3 mph NW0.5 kmh NW 2.2 mph3.5 kmh 30.05 in1017.6 mb 0.00 in0.0 mm 0.00 in/hr0.0 mm/hr 0.00 in0.0 mm
01:45 AM 27.7°F-2.4°C 22.9°F-5.1°C 82% 0.2 mph W0.3 kmh W 2.2 mph3.5 kmh 30.04 in1017.3 mb 0.00 in0.0 mm 0.00 in/hr0.0 mm/hr 0.00 in0.0 mm
02:00 AM 27.5°F-2.5°C 22.8°F-5.1°C 82% 0.1 mph NW0.2 kmh NW 3.1 mph5.0 kmh 30.04 in1017.3 mb 0.00 in0.0 mm 0.00 in/hr0.0 mm/hr 0.00 in0.0 mm
02:15 AM 27.3°F-2.6°C 22.6°F-5.2°C 82% Calm Calm 0.7 mph1.1 kmh 30.05 in1017.6 mb 0.00 in0.0 mm 0.00 in/hr0.0 mm/hr 0.00 in0.0 mm
02:30 AM 27.0°F-2.8°C 22.2°F-5.4°C 82% Calm Calm -- 30.04 in1017.3 mb 0.00 in0.0 mm 0.00 in/hr0.0 mm/hr 0.00 in0.0 mm
02:45 AM 26.8°F-2.9°C 22.1°F-5.5°C 82% 0.2 mph NW0.3 kmh NW 2.2 mph3.5 kmh 30.05 in1017.6 mb 0.00 in0.0 mm 0.00 in/hr0.0 mm/hr 0.00 in0.0 mm
03:00 AM 27.0°F-2.8°C 22.2°F-5.4°C 82% 0.6 mph NW1.0 kmh NW 3.1 mph5.0 kmh 30.05 in1017.6 mb 0.00 in0.0 mm 0.00 in/hr0.0 mm/hr 0.00 in0.0 mm
03:15 AM 27.1°F-2.7°C 22.4°F-5.3°C 82% 0.3 mph S0.5 kmh S 3.1 mph5.0 kmh 30.04 in1017.3 mb 0.00 in0.0 mm 0.00 in/hr0.0 mm/hr 0.00 in0.0 mm
03:30 AM 27.1°F-2.7°C 22.4°F-5.3°C 82% 0.2 mph N0.3 kmh N 1.6 mph2.6 kmh 30.04 in1017.3 mb 0.00 in0.0 mm 0.00 in/hr0.0 mm/hr 0.00 in0.0 mm
03:45 AM 27.1°F-2.7°C 22.4°F-5.3°C 82% 0.8 mph NW1.3 kmh NW 3.8 mph6.1 kmh 30.04 in1017.3 mb 0.00 in0.0 mm 0.00 in/hr0.0 mm/hr 0.00 in0.0 mm
04:00 AM 27.0°F-2.8°C 22.2°F-5.4°C 82% 0.2 mph NNE0.3 kmh NNE 2.2 mph3.5 kmh 30.04 in1017.3 mb 0.00 in0.0 mm 0.00 in/hr0.0 mm/hr 0.00 in0.0 mm
04:15 AM 26.8°F-2.9°C 22.1°F-5.5°C 82% 1.5 mph NW2.4 kmh NW 3.8 mph6.1 kmh 30.04 in1017.3 mb 0.00 in0.0 mm 0.00 in/hr0.0 mm/hr 0.00 in0.0 mm
04:30 AM 26.8°F-2.9°C 22.1°F-5.5°C 82% 1.3 mph NNW2.1 kmh NNW 6.0 mph9.7 kmh 30.04 in1017.3 mb 0.00 in0.0 mm 0.00 in/hr0.0 mm/hr 0.00 in0.0 mm
04:45 AM 26.4°F-3.1°C 22.0°F-5.6°C 83% 0.9 mph W1.4 kmh W 4.5 mph7.2 kmh 30.04 in1017.3 mb 0.00 in0.0 mm 0.00 in/hr0.0 mm/hr 0.00 in0.0 mm
05:00 AM 26.4°F-3.1°C 22.0°F-5.6°C 83% 0.4 mph W0.6 kmh W 4.5 mph7.2 kmh 30.04 in1017.3 mb 0.00 in0.0 mm 0.00 in/hr0.0 mm/hr 0.00 in0.0 mm
05:15 AM 26.2°F-3.2°C 21.8°F-5.7°C 83% 1.0 mph NW1.6 kmh NW 3.8 mph6.1 kmh 30.05 in1017.6 mb 0.00 in0.0 mm 0.00 in/hr0.0 mm/hr 0.00 in0.0 mm
05:30 AM 26.4°F-3.1°C 21.7°F-5.7°C 82% 0.6 mph WSW1.0 kmh WSW 3.8 mph6.1 kmh 30.05 in1017.6 mb 0.00 in0.0 mm 0.00 in/hr0.0 mm/hr 0.00 in0.0 mm
05:45 AM 26.2°F-3.2°C 21.5°F-5.8°C 82% 0.6 mph NW1.0 kmh NW 3.1 mph5.0 kmh 30.06 in1017.9 mb 0.00 in0.0 mm 0.00 in/hr0.0 mm/hr 0.00 in0.0 mm
06:00 AM 25.3°F-3.7°C 20.4°F-6.4°C 81% 0.2 mph NW0.3 kmh NW 2.2 mph3.5 kmh 30.06 in1017.9 mb 0.00 in0.0 mm 0.00 in/hr0.0 mm/hr 0.00 in0.0 mm
06:15 AM 24.4°F-4.2°C 19.5°F-6.9°C 81% 0.3 mph NW0.5 kmh NW 2.2 mph3.5 kmh 30.07 in1018.3 mb 0.00 in0.0 mm 0.00 in/hr0.0 mm/hr 0.00 in0.0 mm
06:30 AM 23.9°F-4.5°C 19.0°F-7.2°C 81% 0.2 mph W0.3 kmh W 3.1 mph5.0 kmh 30.07 in1018.3 mb 0.00 in0.0 mm 0.00 in/hr0.0 mm/hr 0.00 in0.0 mm
06:45 AM 23.5°F-4.7°C 18.6°F-7.4°C 81% 0.6 mph S1.0 kmh S 3.8 mph6.1 kmh 30.07 in1018.3 mb 0.00 in0.0 mm 0.00 in/hr0.0 mm/hr 0.00 in0.0 mm
07:00 AM 23.2°F-4.9°C 18.0°F-7.8°C 80% 0.5 mph S0.8 kmh S 4.5 mph7.2 kmh 30.07 in1018.3 mb 0.00 in0.0 mm 0.00 in/hr0.0 mm/hr 0.00 in0.0 mm
07:15 AM 22.6°F-5.2°C 17.7°F-7.9°C 81% 0.1 mph W0.2 kmh W 1.6 mph2.6 kmh 30.08 in1018.6 mb 0.00 in0.0 mm 0.00 in/hr0.0 mm/hr 0.00 in0.0 mm
07:30 AM 22.3°F-5.4°C 17.4°F-8.1°C 81% 0.9 mph NW1.4 kmh NW 4.5 mph7.2 kmh 30.08 in1018.6 mb 0.00 in0.0 mm 0.00 in/hr0.0 mm/hr 0.00 in0.0 mm
07:45 AM 22.1°F-5.5°C 16.9°F-8.4°C 80% 0.5 mph W0.8 kmh W 4.5 mph7.2 kmh 30.09 in1019.0 mb 0.00 in0.0 mm 0.00 in/hr0.0 mm/hr 0.00 in0.0 mm
08:00 AM 21.7°F-5.7°C 16.3°F-8.7°C 79% 0.3 mph WSW0.5 kmh WSW 3.1 mph5.0 kmh 30.09 in1019.0 mb 0.00 in0.0 mm 0.00 in/hr0.0 mm/hr 0.00 in0.0 mm
08:15 AM 21.4°F-5.9°C 15.6°F-9.1°C 78% 1.3 mph NW2.1 kmh NW 3.8 mph6.1 kmh 30.09 in1019.0 mb 0.00 in0.0 mm 0.00 in/hr0.0 mm/hr 0.00 in0.0 mm
08:30 AM 21.0°F-6.1°C 15.3°F-9.3°C 78% 0.3 mph W0.5 kmh W 5.4 mph8.7 kmh 30.10 in1019.3 mb 0.00 in0.0 mm 0.00 in/hr0.0 mm/hr 0.00 in0.0 mm
08:45 AM 21.0°F-6.1°C 15.3°F-9.3°C 78% 0.4 mph WSW0.6 kmh WSW 3.1 mph5.0 kmh 30.10 in1019.3 mb 0.00 in0.0 mm 0.00 in/hr0.0 mm/hr 0.00 in0.0 mm
09:00 AM 21.4°F-5.9°C 15.0°F-9.4°C 76% 0.6 mph WNW1.0 kmh WNW 3.1 mph5.0 kmh 30.11 in1019.6 mb 0.00 in0.0 mm 0.00 in/hr0.0 mm/hr 0.00 in0.0 mm
09:15 AM 21.9°F-5.6°C 15.6°F-9.1°C 76% 0.4 mph NW0.6 kmh NW 3.1 mph5.0 kmh 30.11 in1019.6 mb 0.00 in0.0 mm 0.00 in/hr0.0 mm/hr 0.00 in0.0 mm
09:30 AM 22.6°F-5.2°C 16.0°F-8.9°C 75% 0.3 mph SW0.5 kmh SW 2.2 mph3.5 kmh 30.12 in1020.0 mb 0.00 in0.0 mm 0.00 in/hr0.0 mm/hr 0.00 in0.0 mm
09:45 AM 23.4°F-4.8°C 16.0°F-8.9°C 73% 0.5 mph NW0.8 kmh NW 4.5 mph7.2 kmh 30.11 in1019.6 mb 0.00 in0.0 mm 0.00 in/hr0.0 mm/hr 0.00 in0.0 mm
10:00 AM 24.3°F-4.3°C 16.6°F-8.6°C 72% 0.8 mph NW1.3 kmh NW 4.5 mph7.2 kmh 30.11 in1019.6 mb 0.00 in0.0 mm 0.00 in/hr0.0 mm/hr 0.00 in0.0 mm
10:15 AM 25.5°F-3.6°C 16.8°F-8.4°C 69% 1.4 mph SW2.3 kmh SW 4.5 mph7.2 kmh 30.12 in1020.0 mb 0.00 in0.0 mm 0.00 in/hr0.0 mm/hr 0.00 in0.0 mm
10:30 AM 26.4°F-3.1°C 16.6°F-8.6°C 66% 1.6 mph NW2.6 kmh NW 5.4 mph8.7 kmh 30.12 in1020.0 mb 0.00 in0.0 mm 0.00 in/hr0.0 mm/hr 0.00 in0.0 mm
10:45 AM 26.6°F-3.0°C 16.1°F-8.8°C 64% 1.7 mph NW2.7 kmh NW 7.6 mph12.2 kmh 30.12 in1020.0 mb 0.00 in0.0 mm 0.00 in/hr0.0 mm/hr 0.00 in0.0 mm
11:00 AM 27.9°F-2.3°C 16.9°F-8.4°C 63% 1.6 mph WNW2.6 kmh WNW 5.4 mph8.7 kmh 30.13 in1020.3 mb 0.00 in0.0 mm 0.00 in/hr0.0 mm/hr 0.00 in0.0 mm
11:15 AM 28.0°F-2.2°C 16.7°F-8.5°C 62% 1.7 mph W2.7 kmh W 6.0 mph9.7 kmh 30.13 in1020.3 mb 0.00 in0.0 mm 0.00 in/hr0.0 mm/hr 0.00 in0.0 mm
11:30 AM 28.9°F-1.7°C 18.7°F-7.4°C 65% 1.8 mph WNW2.9 kmh WNW 5.4 mph8.7 kmh 30.13 in1020.3 mb 0.01 in0.3 mm 0.04 in/hr1.0 mm/hr 0.01 in0.3 mm
11:45 AM 29.3°F-1.5°C 18.7°F-7.4°C 64% 2.5 mph WNW4.0 kmh WNW 6.0 mph9.7 kmh 30.13 in1020.3 mb 0.03 in0.8 mm 0.08 in/hr2.0 mm/hr 0.03 in0.8 mm
12:00 PM 31.1°F-0.5°C 20.0°F-6.7°C 63% 1.8 mph WNW2.9 kmh WNW 5.4 mph8.7 kmh 30.12 in1020.0 mb 0.04 in1.0 mm 0.01 in/hr0.3 mm/hr 0.04 in1.0 mm
12:15 PM 32.0°F0.0°C 20.1°F-6.6°C 61% 2.3 mph WNW3.7 kmh WNW 6.0 mph9.7 kmh 30.12 in1020.0 mb 0.06 in1.5 mm 0.08 in/hr2.0 mm/hr 0.06 in1.5 mm
12:30 PM 32.5°F0.3°C 20.2°F-6.6°C 60% 2.9 mph SW4.7 kmh SW 5.4 mph8.7 kmh 30.12 in1020.0 mb 0.06 in1.5 mm 0.00 in/hr0.0 mm/hr 0.08 in2.0 mm
12:45 PM 32.7°F0.4°C 19.6°F-6.9°C 58% 2.5 mph SW4.0 kmh SW 6.9 mph11.1 kmh 30.11 in1019.6 mb 0.07 in1.8 mm 0.04 in/hr1.0 mm/hr 0.10 in2.5 mm
01:00 PM 32.7°F0.4°C 19.6°F-6.9°C 58% 2.5 mph SW4.0 kmh SW 6.9 mph11.1 kmh 30.10 in1019.3 mb 0.06 in1.5 mm 0.00 in/hr0.0 mm/hr 0.10 in2.5 mm
01:15 PM 33.1°F0.6°C 19.9°F-6.7°C 58% 2.8 mph W4.5 kmh W 9.2 mph14.8 kmh 30.09 in1019.0 mb 0.04 in1.0 mm 0.00 in/hr0.0 mm/hr 0.10 in2.5 mm
01:30 PM 32.9°F0.5°C 19.4°F-7.0°C 57% 2.7 mph NNW4.3 kmh NNW 6.9 mph11.1 kmh 30.09 in1019.0 mb 0.03 in0.8 mm 0.00 in/hr0.0 mm/hr 0.11 in2.8 mm
01:45 PM 34.2°F1.2°C 20.5°F-6.4°C 57% 1.8 mph WSW2.9 kmh WSW 6.0 mph9.7 kmh 30.08 in1018.6 mb 0.02 in0.5 mm 0.00 in/hr0.0 mm/hr 0.11 in2.8 mm
02:00 PM 34.2°F1.2°C 19.7°F-6.8°C 55% 2.1 mph W3.4 kmh W 5.4 mph8.7 kmh 30.07 in1018.3 mb 0.01 in0.3 mm 0.00 in/hr0.0 mm/hr 0.11 in2.8 mm
02:15 PM 34.7°F1.5°C 19.8°F-6.8°C 54% 2.5 mph WNW4.0 kmh WNW 6.9 mph11.1 kmh 30.08 in1018.6 mb 0.01 in0.3 mm 0.00 in/hr0.0 mm/hr 0.11 in2.8 mm
02:30 PM 34.7°F1.5°C 18.9°F-7.3°C 52% 2.8 mph NW4.5 kmh NW 7.6 mph12.2 kmh 30.07 in1018.3 mb 0.01 in0.3 mm 0.00 in/hr0.0 mm/hr 0.11 in2.8 mm
02:45 PM 35.1°F1.7°C 19.2°F-7.1°C 52% 3.1 mph WNW5.0 kmh WNW 7.6 mph12.2 kmh 30.07 in1018.3 mb 0.00 in0.0 mm 0.00 in/hr0.0 mm/hr 0.11 in2.8 mm
03:00 PM 35.4°F1.9°C 19.1°F-7.2°C 51% 3.5 mph WNW5.6 kmh WNW 9.8 mph15.8 kmh 30.07 in1018.3 mb 0.00 in0.0 mm 0.00 in/hr0.0 mm/hr 0.11 in2.8 mm
03:15 PM 35.6°F2.0°C 19.3°F-7.1°C 51% 3.2 mph SW5.1 kmh SW 9.2 mph14.8 kmh 30.07 in1018.3 mb 0.00 in0.0 mm 0.00 in/hr0.0 mm/hr 0.11 in2.8 mm
03:30 PM 35.8°F2.1°C 19.0°F-7.2°C 50% 2.9 mph W4.7 kmh W 8.3 mph13.4 kmh 30.06 in1017.9 mb 0.00 in0.0 mm 0.00 in/hr0.0 mm/hr 0.11 in2.8 mm
03:45 PM 35.8°F2.1°C 19.0°F-7.2°C 50% 2.7 mph NW4.3 kmh NW 8.3 mph13.4 kmh 30.06 in1017.9 mb 0.00 in0.0 mm 0.00 in/hr0.0 mm/hr 0.11 in2.8 mm
04:00 PM 36.1°F2.3°C 19.3°F-7.1°C 50% 2.3 mph SW3.7 kmh SW 6.9 mph11.1 kmh 30.06 in1017.9 mb 0.00 in0.0 mm 0.00 in/hr0.0 mm/hr 0.11 in2.8 mm
04:15 PM 36.1°F2.3°C 18.8°F-7.3°C 49% 2.5 mph SSW4.0 kmh SSW 6.0 mph9.7 kmh 30.06 in1017.9 mb 0.00 in0.0 mm 0.00 in/hr0.0 mm/hr 0.11 in2.8 mm
04:30 PM 35.4°F1.9°C 18.7°F-7.4°C 50% 2.2 mph W3.5 kmh W 7.6 mph12.2 kmh 30.05 in1017.6 mb 0.00 in0.0 mm 0.00 in/hr0.0 mm/hr 0.11 in2.8 mm
04:45 PM 35.4°F1.9°C 19.1°F-7.2°C 51% 2.5 mph WSW4.0 kmh WSW 8.3 mph13.4 kmh 30.06 in1017.9 mb 0.00 in0.0 mm 0.00 in/hr0.0 mm/hr 0.11 in2.8 mm
05:00 PM 35.6°F2.0°C 18.8°F-7.3°C 50% 1.5 mph NW2.4 kmh NW 4.5 mph7.2 kmh 30.06 in1017.9 mb 0.00 in0.0 mm 0.00 in/hr0.0 mm/hr 0.11 in2.8 mm
05:15 PM 35.6°F2.0°C 18.4°F-7.6°C 49% 1.7 mph NW2.7 kmh NW 5.4 mph8.7 kmh 30.06 in1017.9 mb 0.00 in0.0 mm 0.00 in/hr0.0 mm/hr 0.11 in2.8 mm
05:30 PM 35.4°F1.9°C 19.6°F-6.9°C 52% 0.6 mph NW1.0 kmh NW 3.1 mph5.0 kmh 30.06 in1017.9 mb 0.00 in0.0 mm 0.00 in/hr0.0 mm/hr 0.11 in2.8 mm
05:45 PM 35.1°F1.7°C 19.7°F-6.8°C 53% 0.1 mph S0.2 kmh S 2.2 mph3.5 kmh 30.06 in1017.9 mb 0.00 in0.0 mm 0.00 in/hr0.0 mm/hr 0.11 in2.8 mm
06:00 PM 34.5°F1.4°C 19.6°F-6.9°C 54% Calm Calm 1.6 mph2.6 kmh 30.06 in1017.9 mb 0.00 in0.0 mm 0.00 in/hr0.0 mm/hr 0.11 in2.8 mm
06:15 PM 34.0°F1.1°C 19.1°F-7.2°C 54% 0.1 mph SE0.2 kmh SE 3.1 mph5.0 kmh 30.06 in1017.9 mb 0.00 in0.0 mm 0.00 in/hr0.0 mm/hr 0.11 in2.8 mm
06:30 PM 33.1°F0.6°C 18.7°F-7.4°C 55% Calm Calm -- 30.06 in1017.9 mb 0.00 in0.0 mm 0.00 in/hr0.0 mm/hr 0.11 in2.8 mm
06:45 PM 32.2°F0.1°C 18.3°F-7.6°C 56% Calm Calm -- 30.06 in1017.9 mb 0.00 in0.0 mm 0.00 in/hr0.0 mm/hr 0.11 in2.8 mm
07:00 PM 31.1°F-0.5°C 18.5°F-7.5°C 59% Calm Calm -- 30.07 in1018.3 mb 0.00 in0.0 mm 0.00 in/hr0.0 mm/hr 0.11 in2.8 mm
07:15 PM 30.6°F-0.8°C 18.7°F-7.4°C 61% Calm Calm 0.7 mph1.1 kmh 30.07 in1018.3 mb 0.00 in0.0 mm 0.00 in/hr0.0 mm/hr 0.11 in2.8 mm
07:30 PM 30.0°F-1.1°C 19.0°F-7.2°C 63% 0.1 mph N0.2 kmh N 1.6 mph2.6 kmh 30.08 in1018.6 mb 0.00 in0.0 mm 0.00 in/hr0.0 mm/hr 0.11 in2.8 mm
07:45 PM 29.5°F-1.4°C 18.8°F-7.3°C 64% 0.3 mph N0.5 kmh N 1.6 mph2.6 kmh 30.08 in1018.6 mb 0.00 in0.0 mm 0.00 in/hr0.0 mm/hr 0.11 in2.8 mm
08:00 PM 28.8°F-1.8°C 18.5°F-7.5°C 65% 0.1 mph N0.2 kmh N 1.6 mph2.6 kmh 30.09 in1019.0 mb 0.00 in0.0 mm 0.00 in/hr0.0 mm/hr 0.11 in2.8 mm
08:15 PM 28.6°F-1.9°C 18.7°F-7.4°C 66% 0.4 mph NNE0.6 kmh NNE 1.6 mph2.6 kmh 30.09 in1019.0 mb 0.00 in0.0 mm 0.00 in/hr0.0 mm/hr 0.11 in2.8 mm
08:30 PM 28.2°F-2.1°C 17.3°F-8.2°C 63% 0.4 mph NNE0.6 kmh NNE 2.2 mph3.5 kmh 30.09 in1019.0 mb 0.00 in0.0 mm 0.00 in/hr0.0 mm/hr 0.11 in2.8 mm
08:45 PM 27.9°F-2.3°C 16.9°F-8.4°C 63% 0.2 mph N0.3 kmh N 1.6 mph2.6 kmh 30.09 in1019.0 mb 0.00 in0.0 mm 0.00 in/hr0.0 mm/hr 0.11 in2.8 mm
09:00 PM 27.5°F-2.5°C 17.0°F-8.3°C 64% Calm Calm -- 30.08 in1018.6 mb 0.00 in0.0 mm 0.00 in/hr0.0 mm/hr 0.11 in2.8 mm
09:15 PM 27.7°F-2.4°C 17.1°F-8.3°C 64% 0.4 mph N0.6 kmh N 1.6 mph2.6 kmh 30.08 in1018.6 mb 0.00 in0.0 mm 0.00 in/hr0.0 mm/hr 0.11 in2.8 mm
09:30 PM 27.1°F-2.7°C 16.6°F-8.6°C 64% Calm Calm 0.7 mph1.1 kmh 30.08 in1018.6 mb 0.00 in0.0 mm 0.00 in/hr0.0 mm/hr 0.11 in2.8 mm
09:45 PM 26.4°F-3.1°C 15.9°F-8.9°C 64% Calm Calm 1.6 mph2.6 kmh 30.08 in1018.6 mb 0.00 in0.0 mm 0.00 in/hr0.0 mm/hr 0.11 in2.8 mm
10:00 PM 26.4°F-3.1°C 16.3°F-8.7°C 65% Calm Calm -- 30.09 in1019.0 mb 0.00 in0.0 mm 0.00 in/hr0.0 mm/hr 0.11 in2.8 mm
10:15 PM 26.1°F-3.3°C 15.9°F-8.9°C 65% Calm Calm -- 30.09 in1019.0 mb 0.00 in0.0 mm 0.00 in/hr0.0 mm/hr 0.11 in2.8 mm
10:30 PM 26.2°F-3.2°C 16.1°F-8.8°C 65% Calm Calm 0.7 mph1.1 kmh 30.09 in1019.0 mb 0.00 in0.0 mm 0.00 in/hr0.0 mm/hr 0.11 in2.8 mm
10:45 PM 26.8°F-2.9°C 16.3°F-8.7°C 64% 0.4 mph SSE0.6 kmh SSE 3.1 mph5.0 kmh 30.09 in1019.0 mb 0.00 in0.0 mm 0.00 in/hr0.0 mm/hr 0.11 in2.8 mm
11:00 PM 26.6°F-3.0°C 16.1°F-8.8°C 64% 0.1 mph NE0.2 kmh NE 1.6 mph2.6 kmh 30.09 in1019.0 mb 0.00 in0.0 mm 0.00 in/hr0.0 mm/hr 0.11 in2.8 mm
11:15 PM 27.1°F-2.7°C 15.9°F-8.9°C 62% 0.3 mph NW0.5 kmh NW 5.4 mph8.7 kmh 30.10 in1019.3 mb 0.00 in0.0 mm 0.00 in/hr0.0 mm/hr 0.11 in2.8 mm
11:30 PM 27.0°F-2.8°C 15.7°F-9.1°C 62% Calm Calm 0.7 mph1.1 kmh 30.10 in1019.3 mb 0.00 in0.0 mm 0.00 in/hr0.0 mm/hr 0.11 in2.8 mm
11:45 PM 27.0°F-2.8°C 15.3°F-9.3°C 61% Calm Calm -- 30.10 in1019.3 mb 0.00 in0.0 mm 0.00 in/hr0.0 mm/hr 0.11 in2.8 mm